Archiv-/Tagesdaten

--Timestamp---	Temp	Chill	HIndex	Humid	Dewpt	 Wind 	HiWind	WindDir	Rain 	Barom	Solar	 ET  	 UV 
--------------	----	-----	------	-----	-----	------	------	-------	-----	-----	-----	-----	----
20091104 00:00	3.8	3.8	3.8	92	2.6	5	11	158	0.0	996.2	0	0.000	0.0
20091104 00:05	3.7	2.1	3.7	92	2.5	6	11	158	0.2	996.0	0	0.000	0.0
20091104 00:10	3.7	3.7	3.7	92	2.5	5	11	135	0.0	995.9	0	0.000	0.0
20091104 00:15	3.7	3.7	3.7	92	2.5	5	11	135	0.0	995.7	0	0.000	0.0
20091104 00:20	3.7	3.7	3.7	92	2.5	5	14	158	0.0	995.6	0	0.000	0.0
20091104 00:25	3.7	3.7	3.7	92	2.5	5	11	135	0.2	995.5	0	0.000	0.0
20091104 00:30	3.7	3.7	3.7	92	2.5	5	14	158	0.0	995.6	0	0.000	0.0
20091104 00:35	3.7	2.1	3.7	92	2.5	6	18	158	0.0	995.5	0	0.000	0.0
20091104 00:40	3.7	2.1	3.7	92	2.5	6	11	180	0.0	995.5	0	0.000	0.0
20091104 00:45	3.7	2.1	3.7	92	2.5	6	13	135	0.0	995.4	0	0.000	0.0
20091104 00:50	3.7	2.1	3.7	92	2.5	6	11	158	0.0	995.3	0	0.000	0.0
20091104 00:55	3.7	2.1	3.7	92	2.5	6	16	158	0.0	995.3	0	0.000	0.0
20091104 01:00	3.7	2.1	3.7	92	2.5	6	14	158	0.2	995.1	0	0.000	0.0
20091104 01:05	3.7	2.1	3.7	92	2.5	6	16	158	0.2	995.0	0	0.000	0.0
20091104 01:10	3.8	1.7	3.8	92	2.6	8	16	180	0.0	994.9	0	0.000	0.0
20091104 01:15	3.8	2.2	3.8	92	2.7	6	11	158	0.0	994.9	0	0.000	0.0
20091104 01:20	3.9	1.8	3.9	92	2.7	8	16	158	0.0	994.8	0	0.000	0.0
20091104 01:25	3.9	2.4	3.9	92	2.8	6	11	180	0.0	994.8	0	0.000	0.0
20091104 01:30	4.0	2.0	4.0	92	2.8	8	16	180	0.0	994.7	0	0.000	0.0
20091104 01:35	4.1	2.0	4.1	92	2.9	8	16	180	0.0	994.6	0	0.000	0.0
20091104 01:40	4.1	2.1	4.1	92	2.9	8	14	180	0.0	994.6	0	0.000	0.0
20091104 01:45	4.1	2.1	4.1	92	2.9	8	18	158	0.0	994.5	0	0.000	0.0
20091104 01:50	4.2	4.2	4.2	92	3.0	5	11	158	0.0	994.2	0	0.000	0.0
20091104 01:55	4.2	2.6	4.2	92	3.0	6	11	180	0.0	994.2	0	0.000	0.0
20091104 02:00	4.2	2.7	4.2	92	3.0	6	16	180	0.0	994.2	0	0.000	0.0
20091104 02:05	4.2	4.2	4.2	92	3.0	5	11	180	0.0	994.0	0	0.000	0.0
20091104 02:10	4.3	2.3	4.3	92	3.1	8	13	158	0.0	993.9	0	0.000	0.0
20091104 02:15	4.3	2.3	4.3	92	3.1	8	14	180	0.0	993.9	0	0.000	0.0
20091104 02:20	4.3	2.8	4.3	92	3.1	6	13	158	0.2	993.8	0	0.000	0.0
20091104 02:25	4.3	2.3	4.3	92	3.1	8	14	180	0.0	993.8	0	0.000	0.0
20091104 02:30	4.3	2.3	4.3	92	3.1	8	16	158	0.2	993.6	0	0.000	0.0
20091104 02:35	4.3	2.8	4.3	93	3.3	6	11	158	0.0	993.5	0	0.000	0.0
20091104 02:40	4.3	2.8	4.3	93	3.3	6	11	158	0.0	993.3	0	0.000	0.0
20091104 02:45	4.4	2.9	4.4	93	3.4	6	11	158	0.0	993.2	0	0.000	0.0
20091104 02:50	4.4	3.0	4.4	93	3.4	6	10	158	0.0	993.0	0	0.000	0.0
20091104 02:55	4.5	3.0	4.5	93	3.5	6	10	180	0.0	992.7	0	0.000	0.0
20091104 03:00	4.5	3.0	4.5	93	3.5	6	11	158	0.0	992.6	0	0.000	0.0
20091104 03:05	4.5	4.5	4.5	93	3.5	5	10	180	0.0	992.6	0	0.000	0.0
20091104 03:10	4.5	3.0	4.5	93	3.5	6	14	180	0.0	992.6	0	0.000	0.0
20091104 03:15	4.6	4.6	4.6	93	3.5	5	11	180	0.0	992.5	0	0.000	0.0
20091104 03:20	4.6	3.1	4.6	92	3.4	6	11	158	0.0	992.4	0	0.000	0.0
20091104 03:25	4.6	4.6	4.6	92	3.4	5	11	135	0.0	992.3	0	0.000	0.0
20091104 03:30	4.7	3.2	4.7	93	3.6	6	11	158	0.0	992.2	0	0.000	0.0
20091104 03:35	4.7	3.2	4.7	93	3.6	6	10	180	0.0	992.1	0	0.000	0.0
20091104 03:40	4.7	3.2	4.7	93	3.6	6	14	158	0.0	992.0	0	0.000	0.0
20091104 03:45	4.6	4.6	4.6	92	3.4	5	10	180	0.0	991.9	0	0.000	0.0
20091104 03:50	4.6	3.1	4.6	93	3.6	6	11	180	0.0	991.8	0	0.000	0.0
20091104 03:55	4.6	3.1	4.6	92	3.4	6	11	158	0.0	991.8	0	0.000	0.0
20091104 04:00	4.7	3.2	4.7	93	3.6	6	16	180	0.0	991.7	0	0.000	0.0
20091104 04:05	4.7	2.8	4.7	93	3.7	8	14	180	0.0	991.8	0	0.000	0.0
20091104 04:10	4.8	3.3	4.8	93	3.7	6	16	180	0.0	991.8	0	0.000	0.0
20091104 04:15	4.9	3.1	4.9	93	3.9	8	14	180	0.2	991.6	0	0.000	0.0
20091104 04:20	5.0	3.6	5.0	92	3.8	6	11	158	0.0	991.5	0	0.000	0.0
20091104 04:25	5.1	3.7	5.1	92	3.9	6	14	180	0.0	991.4	0	0.000	0.0
20091104 04:30	5.1	3.7	5.1	92	3.9	6	13	180	0.0	991.2	0	0.000	0.0
20091104 04:35	5.1	3.2	5.1	92	3.9	8	16	158	0.0	991.1	0	0.000	0.0
20091104 04:40	5.1	3.2	5.1	92	3.9	8	18	158	0.2	990.9	0	0.000	0.0
20091104 04:45	5.2	3.3	5.2	92	4.0	8	16	158	0.0	990.8	0	0.000	0.0
20091104 04:50	5.2	3.4	5.2	92	4.0	8	18	158	0.0	990.7	0	0.000	0.0
20091104 04:55	5.3	3.9	5.3	92	4.1	6	11	158	0.0	990.5	0	0.000	0.0
20091104 05:00	5.3	3.5	5.3	92	4.1	8	16	158	0.2	990.4	0	0.000	0.0
20091104 05:05	5.4	4.0	5.4	92	4.2	6	11	158	0.2	990.3	0	0.000	0.0
20091104 05:10	5.3	5.3	5.3	92	4.1	5	11	135	0.0	990.1	0	0.000	0.0
20091104 05:15	5.3	3.5	5.3	92	4.1	8	18	135	0.0	990.0	0	0.000	0.0
20091104 05:20	5.2	3.4	5.2	92	4.0	8	18	158	0.0	990.0	0	0.000	0.0
20091104 05:25	5.2	2.9	5.2	92	4.0	10	18	158	0.0	989.9	0	0.000	0.0
20091104 05:30	5.1	3.3	5.1	92	3.9	8	16	158	0.0	989.8	0	0.000	0.0
20091104 05:35	5.1	3.7	5.1	92	3.9	6	14	135	0.0	989.7	0	0.000	0.0
20091104 05:40	5.1	3.7	5.1	92	3.9	6	19	135	0.0	989.6	0	0.000	0.0
20091104 05:45	5.1	3.2	5.1	92	3.9	8	19	158	0.0	989.6	0	0.000	0.0
20091104 05:50	5.1	2.5	5.1	92	3.9	11	21	158	0.0	989.4	0	0.000	0.0
20091104 05:55	5.1	3.2	5.1	92	3.9	8	19	158	0.0	989.5	0	0.000	0.0
20091104 06:00	5.0	3.6	5.0	92	3.8	6	16	158	0.2	989.4	0	0.000	0.0
20091104 06:05	5.0	3.6	5.0	92	3.8	6	14	180	0.0	989.7	0	0.000	0.0
20091104 06:10	5.0	3.6	5.0	92	3.8	6	10	180	0.0	989.6	0	0.000	0.0
20091104 06:15	5.0	2.4	5.0	92	3.8	11	19	158	0.2	989.7	0	0.000	0.0
20091104 06:20	4.9	3.5	4.9	92	3.8	6	11	248	0.2	990.0	0	0.000	0.0
20091104 06:25	4.9	3.1	4.9	92	3.8	8	16	225	0.2	989.7	0	0.000	0.0
20091104 06:30	4.9	3.1	4.9	92	3.8	8	16	158	0.2	989.5	0	0.000	0.0
20091104 06:35	4.9	3.5	4.9	92	3.8	6	16	180	0.0	989.5	0	0.000	0.0
20091104 06:40	4.9	4.9	4.9	92	3.8	3	8	180	0.0	989.7	0	0.000	0.0
20091104 06:45	4.9	4.9	4.9	92	3.8	5	8	225	0.0	989.7	0	0.000	0.0
20091104 06:50	4.9	3.5	4.9	93	3.9	6	11	180	0.2	989.7	0	0.000	0.0
20091104 06:55	5.0	3.6	5.0	93	4.0	6	14	180	0.0	989.6	0	0.000	0.0
20091104 07:00	5.0	3.1	5.0	93	4.0	8	19	180	0.0	989.6	0	0.000	0.0
20091104 07:05	4.9	3.1	4.9	93	3.9	8	13	180	0.0	989.5	0	0.000	0.0
20091104 07:10	4.9	3.1	4.9	92	3.8	8	14	180	0.2	989.5	0	0.000	0.0
20091104 07:15	5.0	3.1	5.0	98	4.7	8	16	158	0.0	989.4	0	0.000	0.0
20091104 07:20	5.1	3.2	5.1	93	4.0	8	14	158	0.0	989.5	0	0.000	0.0
20091104 07:25	5.1	3.7	5.1	93	4.0	6	11	180	0.2	989.5	2	0.000	0.0
20091104 07:30	5.2	3.8	5.2	93	4.1	6	10	180	0.0	989.6	6	0.000	0.0
20091104 07:35	5.3	3.9	5.3	93	4.2	6	13	180	0.0	989.5	7	0.000	0.0
20091104 07:40	5.5	3.7	5.5	93	4.5	8	16	202	0.0	989.6	7	0.000	0.0
20091104 07:45	5.7	4.0	5.7	93	4.7	8	16	202	0.0	989.5	12	0.000	0.0
20091104 07:50	5.8	3.7	5.8	93	4.8	10	18	202	0.0	989.5	18	0.000	0.0
20091104 07:55	5.9	4.2	5.9	93	4.9	8	16	202	0.0	989.7	17	0.000	0.0
20091104 08:00	6.1	4.4	6.1	93	5.0	8	16	225	0.0	989.8	15	0.000	0.0
20091104 08:05	6.2	4.1	6.2	93	5.1	10	16	225	0.0	990.0	18	0.000	0.0
20091104 08:10	6.4	4.1	6.4	93	5.3	11	21	225	0.0	990.1	46	0.000	0.0
20091104 08:15	6.6	4.3	6.6	93	5.5	11	18	225	0.0	990.3	44	0.000	0.0
20091104 08:20	6.8	4.3	6.8	92	5.6	13	19	225	0.0	990.5	36	0.000	0.0
20091104 08:25	7.1	4.6	7.1	92	5.8	13	29	248	0.0	990.4	58	0.000	0.0
20091104 08:30	7.4	4.8	7.4	91	6.0	14	27	225	0.0	990.5	70	0.000	0.0
20091104 08:35	7.7	5.4	7.7	91	6.3	13	23	248	0.0	990.5	79	0.000	0.0
20091104 08:40	8.1	5.8	8.1	90	6.5	13	24	248	0.0	990.8	57	0.000	0.0
20091104 08:45	8.3	6.1	8.3	90	6.7	13	26	270	0.0	990.6	44	0.000	0.0
20091104 08:50	8.6	5.5	8.6	89	6.9	21	31	248	0.0	990.8	37	0.000	0.0
20091104 08:55	9.0	6.0	9.0	87	7.0	21	37	248	0.0	990.6	26	0.000	0.0
20091104 09:00	9.2	6.4	9.2	86	6.9	19	40	270	0.0	990.7	55	0.025	0.0
20091104 09:05	9.3	6.6	9.3	84	6.8	19	40	248	0.0	990.7	82	0.000	0.0
20091104 09:10	9.4	6.5	9.4	82	6.5	23	39	248	0.0	990.9	102	0.000	0.0
20091104 09:15	9.6	6.7	9.6	81	6.5	21	37	248	0.0	990.9	68	0.000	0.0
20091104 09:20	9.5	7.0	9.5	81	6.4	18	29	270	0.0	991.3	66	0.000	0.0
20091104 09:25	9.6	6.6	9.6	80	6.3	23	42	248	0.0	991.3	70	0.000	0.0
20091104 09:30	9.6	6.6	9.6	79	6.1	23	34	248	0.0	991.4	69	0.000	0.0
20091104 09:35	9.6	6.6	9.6	78	5.9	23	37	248	0.0	991.4	75	0.000	0.0
20091104 09:40	9.6	6.5	9.6	78	5.9	24	37	248	0.0	991.5	90	0.000	0.0
20091104 09:45	9.6	6.6	9.6	78	5.9	23	40	248	0.0	991.5	116	0.000	0.5
20091104 09:50	9.6	6.9	9.6	79	6.1	19	31	248	0.0	991.6	103	0.000	0.3
20091104 09:55	9.4	6.5	9.4	79	6.0	23	35	270	0.0	991.4	105	0.000	0.5
20091104 10:00	9.4	6.1	9.4	78	5.8	27	47	248	0.0	991.6	108	0.076	0.5
20091104 10:05	9.4	6.4	9.4	78	5.7	23	32	248	0.0	991.6	105	0.000	0.6
20091104 10:10	9.3	6.6	9.3	79	5.9	19	32	248	0.0	991.6	118	0.000	0.7
20091104 10:15	9.3	6.7	9.3	79	5.8	18	31	248	0.0	991.5	102	0.000	0.9
20091104 10:20	9.5	6.7	9.5	79	6.0	21	35	248	0.0	991.7	48	0.000	0.2
20091104 10:25	9.7	6.9	9.7	78	6.0	21	35	248	0.0	991.7	47	0.000	0.0
20091104 10:30	9.8	6.9	9.8	78	6.2	23	39	270	0.0	991.6	63	0.000	0.7
20091104 10:35	10.1	10.1	10.1	76	6.0	24	40	270	0.0	991.6	154	0.000	1.0
20091104 10:40	10.3	10.3	10.3	75	6.1	24	42	248	0.0	991.6	417	0.000	1.0
20091104 10:45	10.4	10.4	10.4	75	6.2	23	39	270	0.0	991.7	154	0.000	1.1
20091104 10:50	10.4	10.4	10.4	75	6.2	19	32	270	0.0	991.7	154	0.000	1.1
20091104 10:55	10.4	10.4	10.4	73	5.8	27	51	270	0.0	991.8	124	0.000	1.1
20091104 11:00	10.4	10.4	10.4	74	6.0	21	35	270	0.0	991.7	216	0.127	1.3
20091104 11:05	10.7	10.7	10.7	72	5.9	21	40	270	0.0	991.4	275	0.000	1.4
20091104 11:10	11.1	11.1	11.1	71	6.1	18	32	270	0.0	991.5	486	0.000	1.5
20091104 11:15	11.4	11.4	11.4	68	5.7	21	37	270	0.0	991.2	491	0.000	1.6
20091104 11:20	11.5	11.5	11.5	66	5.4	26	42	270	0.0	991.1	355	0.000	1.5
20091104 11:25	11.4	11.4	11.4	66	5.3	18	35	270	0.0	991.3	259	0.000	1.2
20091104 11:30	11.2	11.2	11.2	63	4.4	27	42	270	0.0	991.6	200	0.000	1.1
20091104 11:35	11.1	11.1	11.1	65	4.7	26	40	270	0.0	991.7	223	0.000	1.1
20091104 11:40	10.9	10.9	10.9	64	4.3	26	42	270	0.0	991.8	200	0.000	1.2
20091104 11:45	10.8	10.8	10.8	64	4.3	24	47	270	0.0	991.7	234	0.000	1.3
20091104 11:50	10.8	10.8	10.8	63	4.1	26	50	270	0.0	991.8	155	0.000	1.1
20091104 11:55	10.7	10.7	10.7	64	4.1	26	45	248	0.0	991.7	164	0.000	1.0
20091104 12:00	10.6	10.6	10.6	65	4.3	23	42	270	0.0	991.7	152	0.229	1.2
20091104 12:05	10.6	10.6	10.6	64	4.0	24	47	270	0.0	991.8	113	0.000	1.3
20091104 12:10	10.7	10.7	10.7	63	3.9	27	48	270	0.0	991.7	136	0.000	1.3
20091104 12:15	10.8	10.8	10.8	64	4.3	24	39	270	0.0	991.8	482	0.000	1.2
20091104 12:20	10.9	10.9	10.9	64	4.3	24	42	270	0.0	991.8	220	0.000	1.1
20091104 12:25	10.8	10.8	10.8	65	4.5	19	37	270	0.0	991.8	214	0.000	1.2
20091104 12:30	10.8	10.8	10.8	65	4.5	24	37	270	0.0	992.0	191	0.000	1.2
20091104 12:35	10.7	10.7	10.7	65	4.4	27	43	270	0.0	991.8	195	0.000	1.2
20091104 12:40	10.8	10.8	10.8	62	3.8	31	45	248	0.0	991.9	298	0.000	1.4
20091104 12:45	11.1	11.1	11.1	64	4.5	23	37	270	0.0	992.0	550	0.000	1.5
20091104 12:50	11.2	11.2	11.2	61	4.0	27	51	270	0.0	992.0	538	0.000	1.4
20091104 12:55	11.2	11.2	11.2	62	4.2	29	45	270	0.0	992.1	377	0.000	1.4
20091104 13:00	11.1	11.1	11.1	63	4.3	29	50	270	0.0	992.1	385	0.254	1.4
20091104 13:05	10.9	10.9	10.9	62	3.9	32	56	248	0.0	991.9	407	0.000	1.3
20091104 13:10	10.8	10.8	10.8	63	4.0	31	48	270	0.0	992.2	443	0.000	1.4
20091104 13:15	10.8	10.8	10.8	62	3.8	31	48	270	0.0	992.1	453	0.000	1.4
20091104 13:20	10.7	10.7	10.7	63	3.9	32	51	270	0.0	992.6	344	0.000	1.3
20091104 13:25	10.7	10.7	10.7	63	3.9	32	55	270	0.0	992.4	475	0.000	1.3
20091104 13:30	10.8	10.8	10.8	62	3.8	31	53	270	0.0	992.7	497	0.000	1.3
20091104 13:35	10.9	10.9	10.9	62	3.9	32	50	270	0.0	992.5	380	0.000	1.2
20091104 13:40	10.7	10.7	10.7	61	3.5	32	51	270	0.0	992.6	247	0.000	1.1
20091104 13:45	10.5	10.5	10.5	61	3.3	32	47	270	0.0	992.6	204	0.000	1.0
20091104 13:50	10.3	10.3	10.3	63	3.6	23	42	270	0.0	992.5	250	0.000	0.9
20091104 13:55	10.3	10.3	10.3	61	3.1	27	45	270	0.0	992.7	341	0.000	1.0
20091104 14:00	10.4	10.4	10.4	60	3.0	31	50	248	0.0	992.8	404	0.279	0.9
20091104 14:05	10.2	10.2	10.2	62	3.2	29	45	270	0.0	992.7	79	0.000	0.8
20091104 14:10	10.1	10.1	10.1	62	3.1	27	48	248	0.0	992.7	256	0.000	0.9
20091104 14:15	9.9	6.6	9.9	61	2.8	29	47	270	0.0	992.9	353	0.000	0.9
20091104 14:20	10.2	10.2	10.2	62	3.3	23	37	248	0.0	992.9	319	0.000	0.8
20091104 14:25	10.4	10.4	10.4	61	3.2	24	43	270	0.0	992.9	327	0.000	0.8
20091104 14:30	10.3	10.3	10.3	60	2.9	29	45	270	0.0	992.9	233	0.000	0.7
20091104 14:35	10.2	10.2	10.2	60	2.7	26	45	248	0.0	993.1	54	0.000	0.0
20091104 14:40	10.1	10.1	10.1	62	3.1	23	39	270	0.0	993.2	220	0.000	0.6
20091104 14:45	9.9	6.7	9.9	62	3.0	27	51	270	0.0	993.2	69	0.000	0.3
20091104 14:50	9.8	6.7	9.8	62	2.9	26	45	270	0.0	993.4	118	0.000	0.4
20091104 14:55	9.8	6.9	9.8	63	3.1	23	39	270	0.0	993.4	102	0.000	0.3
20091104 15:00	9.7	6.9	9.7	63	3.0	21	34	270	0.0	993.6	54	0.178	0.0
20091104 15:05	9.6	6.6	9.6	64	3.1	23	37	270	0.0	993.6	50	0.000	0.0
20091104 15:10	9.5	6.4	9.5	65	3.2	24	40	270	0.0	993.7	65	0.000	0.0
20091104 15:15	9.6	6.1	9.6	63	2.9	29	45	248	0.0	994.0	205	0.000	0.0
20091104 15:20	9.7	6.1	9.7	63	3.0	31	50	270	0.0	994.1	214	0.000	0.0
20091104 15:25	9.6	6.3	9.6	62	2.6	26	47	270	0.0	994.0	73	0.000	0.0
20091104 15:30	9.4	6.1	9.4	63	2.7	26	43	270	0.0	994.0	87	0.000	0.0
20091104 15:35	9.3	6.4	9.3	64	2.8	21	35	270	0.0	994.0	68	0.000	0.0
20091104 15:40	9.2	6.6	9.2	65	2.9	18	34	270	0.0	994.1	49	0.000	0.0
20091104 15:45	9.1	6.1	9.1	64	2.6	21	35	270	0.0	994.1	35	0.000	0.0
20091104 15:50	8.9	5.9	8.9	65	2.7	21	42	270	0.0	994.2	36	0.000	0.0
20091104 15:55	8.7	5.7	8.7	64	2.3	21	39	270	0.0	994.2	32	0.000	0.0
20091104 16:00	8.7	5.6	8.7	64	2.2	21	34	270	0.0	994.2	39	0.127	0.0
20091104 16:05	8.7	5.6	8.7	63	2.0	21	34	270	0.0	994.3	42	0.000	0.0
20091104 16:10	8.7	5.3	8.7	63	2.0	24	42	270	0.0	994.3	38	0.000	0.0
20091104 16:15	8.6	5.8	8.6	63	1.9	18	31	270	0.0	994.3	28	0.000	0.0
20091104 16:20	8.5	5.6	8.5	63	1.9	19	35	248	0.0	994.4	19	0.000	0.0
20091104 16:25	8.4	5.6	8.4	65	2.2	18	29	270	0.0	994.4	16	0.000	0.0
20091104 16:30	8.2	5.6	8.2	66	2.2	16	24	270	0.0	994.5	14	0.000	0.0
20091104 16:35	8.1	5.4	8.1	65	1.9	16	27	248	0.0	994.7	12	0.000	0.0
20091104 16:40	8.1	5.2	8.1	65	1.9	18	31	270	0.0	994.7	10	0.000	0.0
20091104 16:45	8.0	4.9	8.0	66	2.0	19	31	270	0.0	994.7	9	0.000	0.0
20091104 16:50	7.9	5.3	7.9	66	2.0	16	29	270	0.0	994.8	5	0.000	0.0
20091104 16:55	7.8	5.5	7.8	66	1.8	13	24	248	0.0	994.8	0	0.000	0.0
20091104 17:00	7.6	5.6	7.6	68	2.1	11	19	248	0.0	994.9	0	0.076	0.0
20091104 17:05	7.5	4.7	7.5	67	1.8	16	27	248	0.0	995.0	0	0.000	0.0
20091104 17:10	7.5	4.7	7.5	68	2.0	16	35	248	0.0	995.0	0	0.000	0.0
20091104 17:15	7.4	5.0	7.4	68	1.9	13	26	270	0.0	995.2	0	0.000	0.0
20091104 17:20	7.3	5.0	7.3	68	1.8	13	24	270	0.0	995.4	0	0.000	0.0
20091104 17:25	7.2	5.4	7.2	68	1.7	10	21	270	0.0	995.5	0	0.000	0.0
20091104 17:30	7.1	5.6	7.1	69	1.8	8	14	270	0.0	995.5	0	0.000	0.0
20091104 17:35	6.9	5.8	6.9	70	1.9	6	13	270	0.0	995.6	0	0.000	0.0
20091104 17:40	6.8	5.3	6.8	70	1.7	8	14	248	0.0	995.7	0	0.000	0.0
20091104 17:45	6.7	5.2	6.7	71	1.8	8	13	248	0.0	995.8	0	0.000	0.0
20091104 17:50	6.6	5.4	6.6	72	1.9	6	14	270	0.0	995.9	0	0.000	0.0
20091104 17:55	6.4	5.2	6.4	72	1.7	6	11	270	0.0	996.0	0	0.000	0.0
20091104 18:00	6.3	6.3	6.3	73	1.8	5	8	248	0.0	996.0	0	0.025	0.0
20091104 18:05	6.2	6.2	6.2	74	1.9	5	8	248	0.0	996.1	0	0.000	0.0
20091104 18:10	6.1	6.1	6.1	74	1.8	5	8	248	0.0	996.3	0	0.000	0.0
20091104 18:15	6.0	6.0	6.0	75	1.9	5	8	248	0.0	996.3	0	0.000	0.0
20091104 18:20	5.9	4.7	5.9	75	1.9	6	11	225	0.0	996.3	0	0.000	0.0
20091104 18:25	5.9	4.6	5.9	75	1.8	6	11	248	0.0	996.3	0	0.000	0.0
20091104 18:30	5.8	4.6	5.8	76	1.9	6	11	248	0.0	996.3	0	0.000	0.0
20091104 18:35	5.8	4.6	5.8	76	1.9	6	11	248	0.0	996.4	0	0.000	0.0
20091104 18:40	5.8	4.5	5.8	76	1.9	6	11	225	0.0	996.6	0	0.000	0.0
20091104 18:45	5.7	5.7	5.7	76	1.8	5	6	225	0.0	996.6	0	0.000	0.0
20091104 18:50	5.6	5.6	5.6	77	1.8	5	8	225	0.0	996.7	0	0.000	0.0
20091104 18:55	5.4	5.4	5.4	77	1.7	5	8	225	0.0	996.6	0	0.000	0.0
20091104 19:00	5.3	5.3	5.3	78	1.8	3	6	225	0.0	996.5	0	0.025	0.0
20091104 19:05	5.2	5.2	5.2	79	1.8	5	10	225	0.0	996.4	0	0.000	0.0
20091104 19:10	5.1	5.1	5.1	79	1.8	5	8	225	0.0	996.5	0	0.000	0.0
20091104 19:15	5.1	5.1	5.1	79	1.7	5	10	225	0.0	996.4	0	0.000	0.0
20091104 19:20	5.1	3.7	5.1	79	1.7	6	10	225	0.0	996.5	0	0.000	0.0
20091104 19:25	5.0	5.0	5.0	80	1.8	5	10	202	0.0	996.5	0	0.000	0.0
20091104 19:30	4.9	3.5	4.9	80	1.8	6	11	202	0.0	996.6	0	0.000	0.0
20091104 19:35	4.9	3.5	4.9	80	1.7	6	10	225	0.0	996.6	0	0.000	0.0
20091104 19:40	4.8	2.9	4.8	81	1.8	8	16	202	0.0	996.7	0	0.000	0.0
20091104 19:45	4.8	2.9	4.8	81	1.8	8	14	225	0.0	996.7	0	0.000	0.0
20091104 19:50	4.8	2.9	4.8	81	1.9	8	16	225	0.0	996.8	0	0.000	0.0
20091104 19:55	4.8	2.9	4.8	81	1.9	8	14	225	0.0	996.8	0	0.000	0.0
20091104 20:00	4.8	2.9	4.8	81	1.9	8	16	225	0.0	996.9	0	0.025	0.0
20091104 20:05	4.8	2.9	4.8	81	1.9	8	11	202	0.0	996.6	0	0.000	0.0
20091104 20:10	4.8	4.8	4.8	81	1.9	5	10	202	0.0	996.7	0	0.000	0.0
20091104 20:15	4.8	4.8	4.8	81	1.9	5	16	202	0.0	996.8	0	0.000	0.0
20091104 20:20	4.8	3.3	4.8	82	2.0	6	14	180	0.0	996.8	0	0.000	0.0
20091104 20:25	4.7	3.2	4.7	82	1.9	6	11	180	0.0	996.9	0	0.000	0.0
20091104 20:30	4.6	4.6	4.6	82	1.8	5	13	180	0.0	997.0	0	0.000	0.0
20091104 20:35	4.6	3.1	4.6	83	2.0	6	11	202	0.0	997.1	0	0.000	0.0
20091104 20:40	4.7	3.2	4.7	82	1.9	6	11	225	0.0	997.0	0	0.000	0.0
20091104 20:45	4.7	3.3	4.7	82	1.9	6	11	225	0.0	997.0	0	0.000	0.0
20091104 20:50	4.7	3.3	4.7	82	1.9	6	8	225	0.0	996.9	0	0.000	0.0
20091104 20:55	4.7	3.2	4.7	82	1.9	6	10	225	0.0	997.1	0	0.000	0.0
20091104 21:00	4.7	3.2	4.7	82	1.9	6	13	225	0.0	997.1	0	0.025	0.0
20091104 21:05	4.7	3.2	4.7	82	1.9	6	11	225	0.0	997.1	0	0.000	0.0
20091104 21:10	4.7	3.2	4.7	82	1.9	6	11	225	0.0	997.2	0	0.000	0.0
20091104 21:15	4.7	3.2	4.7	82	1.9	6	11	225	0.0	997.2	0	0.000	0.0
20091104 21:20	4.6	3.1	4.6	82	1.8	6	10	225	0.0	997.3	0	0.000	0.0
20091104 21:25	4.5	3.0	4.5	81	1.5	6	11	202	0.0	997.3	0	0.000	0.0
20091104 21:30	4.4	2.5	4.4	81	1.5	8	10	202	0.0	997.4	0	0.000	0.0
20091104 21:35	4.4	2.9	4.4	82	1.6	6	10	202	0.0	997.4	0	0.000	0.0
20091104 21:40	4.3	4.3	4.3	82	1.5	5	10	202	0.0	997.4	0	0.000	0.0
20091104 21:45	4.3	4.3	4.3	82	1.5	3	6	202	0.0	997.4	0	0.000	0.0
20091104 21:50	4.2	4.2	4.2	82	1.4	3	8	202	0.0	997.4	0	0.000	0.0
20091104 21:55	4.2	4.2	4.2	82	1.4	5	10	202	0.0	997.5	0	0.000	0.0
20091104 22:00	4.1	4.1	4.1	83	1.4	5	10	180	0.0	997.4	0	0.025	0.0
20091104 22:05	4.0	4.0	4.0	83	1.4	5	10	202	0.0	997.4	0	0.000	0.0
20091104 22:10	3.9	2.4	3.9	83	1.3	6	10	202	0.0	997.4	0	0.000	0.0
20091104 22:15	3.9	3.9	3.9	83	1.3	5	10	202	0.0	997.4	0	0.000	0.0
20091104 22:20	3.8	2.2	3.8	83	1.2	6	10	202	0.0	997.4	0	0.000	0.0
20091104 22:25	3.7	2.1	3.7	83	1.1	6	10	202	0.0	997.4	0	0.000	0.0
20091104 22:30	3.6	1.4	3.6	83	0.9	8	14	202	0.0	997.6	0	0.000	0.0
20091104 22:35	3.5	1.4	3.5	83	0.9	8	11	202	0.0	997.6	0	0.000	0.0
20091104 22:40	3.5	1.4	3.5	83	0.9	8	13	202	0.0	997.6	0	0.000	0.0
20091104 22:45	3.4	1.3	3.4	83	0.8	8	11	202	0.0	997.6	0	0.000	0.0
20091104 22:50	3.4	1.3	3.4	83	0.8	8	13	202	0.0	997.6	0	0.000	0.0
20091104 22:55	3.4	1.3	3.4	83	0.8	8	14	202	0.0	997.6	0	0.000	0.0
20091104 23:00	3.3	1.2	3.3	83	0.7	8	16	202	0.0	997.7	0	0.025	0.0
20091104 23:05	3.3	1.1	3.3	83	0.7	8	14	202	0.0	997.7	0	0.000	0.0
20091104 23:10	3.2	1.5	3.2	83	0.6	6	10	202	0.0	997.7	0	0.000	0.0
20091104 23:15	3.2	1.5	3.2	83	0.6	6	11	225	0.0	997.6	0	0.000	0.0
20091104 23:20	3.2	1.0	3.2	83	0.6	8	14	202	0.0	997.6	0	0.000	0.0
20091104 23:25	3.2	1.5	3.2	82	0.4	6	10	202	0.0	997.5	0	0.000	0.0
20091104 23:30	3.2	1.5	3.2	82	0.4	6	11	225	0.0	997.6	0	0.000	0.0
20091104 23:35	3.2	1.5	3.2	82	0.4	6	10	225	0.0	997.5	0	0.000	0.0
20091104 23:40	3.2	3.2	3.2	82	0.4	5	10	225	0.0	997.6	0	0.000	0.0
20091104 23:45	3.2	3.2	3.2	81	0.3	5	8	225	0.0	997.6	0	0.000	0.0
20091104 23:50	3.2	3.2	3.2	81	0.2	5	8	202	0.0	997.6	0	0.000	0.0
20091104 23:55	3.1	3.1	3.1	81	0.1	2	6	202	0.0	997.6	0	0.000	0.0



Please note the license to use and transfer of this data:
http://creativecommons.org/licenses/by-nc-sa/3.0/deed.en

Bitte beachten sie die Lizenz zur Verwertung und Weitergabe der Daten:
http://creativecommons.org/licenses/by-nc-sa/3.0/deed.de

zurück zur Übersicht der Archivdaten (Monats und Tagesdaten)

Cookies helfen bei der Bereitstellung von Inhalten. Durch die Nutzung dieser Seiten erklärst du dich damit einverstanden, dass Cookies auf deinem Rechner gespeichert werden. Weitere Information